Time;durP1;ratioP1;P1;durP2;ratioP2;P2;SDS_P1;SDS_P2;PMS_P1;PMS_P2;Temp;Humidity;BMP_temperature;BMP_pressure;BME280_temperature;BME280_humidity;BME280_pressure;Samples;Min_cycle;Max_cycle;Signal;HPM_P1;HPM_P2
2022/03/07 00:02:12;;;;;;;3.93;2.03;;;1.80;99.90;;;;;;4926045;28;20127;-76
2022/03/07 00:04:38;;;;;;;2.57;1.13;;;1.80;99.90;;;;;;4924457;29;20471;-76
2022/03/07 00:07:04;;;;;;;4.90;1.07;;;1.80;99.90;;;;;;4925441;29;20126;-76
2022/03/07 00:09:29;;;;;;;1.30;1.20;;;1.80;99.90;;;;;;4940589;29;20046;-76
2022/03/07 00:11:55;;;;;;;1.43;1.33;;;1.80;99.90;;;;;;4925151;29;20148;-76
2022/03/07 00:14:20;;;;;;;6.77;1.00;;;1.70;99.90;;;;;;4923626;29;20058;-76
2022/03/07 00:16:46;;;;;;;1.83;1.47;;;1.70;99.90;;;;;;4924441;29;20483;-76
2022/03/07 00:19:13;;;;;;;6.60;1.00;;;1.70;99.90;;;;;;4925658;29;20051;-76
2022/03/07 00:21:39;;;;;;;0.20;0.20;;;1.70;99.90;;;;;;4924128;29;20164;-76
2022/03/07 00:24:06;;;;;;;2.37;0.83;;;1.60;99.90;;;;;;4925533;29;20284;-76
2022/03/07 00:26:32;;;;;;;0.53;0.53;;;1.60;99.90;;;;;;4925517;29;20040;-76
2022/03/07 00:28:58;;;;;;;4.73;1.17;;;1.60;99.90;;;;;;4923764;29;20050;-76
2022/03/07 00:31:23;;;;;;;0.97;0.97;;;1.60;99.90;;;;;;4925355;29;20564;-76
2022/03/07 00:33:50;;;;;;;2.47;1.10;;;1.60;99.90;;;;;;4923893;29;20071;-76
2022/03/07 00:36:16;;;;;;;2.47;1.00;;;1.60;99.90;;;;;;4924852;29;20489;-76
2022/03/07 00:38:41;;;;;;;0.23;0.23;;;1.50;99.90;;;;;;4925390;29;20059;-76
2022/03/07 00:41:09;;;;;;;4.80;0.93;;;1.50;99.90;;;;;;4924860;29;20047;-76
2022/03/07 00:43:35;;;;;;;17.27;2.23;;;1.50;99.90;;;;;;4924183;29;20089;-76
2022/03/07 00:46:01;;;;;;;2.13;1.93;;;1.50;99.90;;;;;;4924663;29;20051;-76
2022/03/07 00:48:27;;;;;;;1.17;1.03;;;1.50;99.90;;;;;;4924991;29;20175;-76
2022/03/07 00:50:53;;;;;;;1.07;0.60;;;1.50;99.90;;;;;;4924803;29;20147;-76
2022/03/07 00:53:23;;;;;;;1.80;1.63;;;1.50;99.90;;;;;;4923938;29;20077;-76
2022/03/07 00:55:50;;;;;;;1.03;0.97;;;1.50;99.90;;;;;;4925069;28;20069;-76
2022/03/07 00:58:17;;;;;;;0.60;0.60;;;1.40;99.90;;;;;;4951655;28;20051;-76
2022/03/07 01:00:43;;;;;;;2.77;1.50;;;1.40;99.90;;;;;;4924133;29;20054;-76
2022/03/07 01:03:10;;;;;;;1.70;0.90;;;1.40;99.90;;;;;;4923412;29;20043;-76
2022/03/07 01:05:36;;;;;;;0.57;0.57;;;1.40;99.90;;;;;;4923643;29;20271;-76
2022/03/07 01:08:02;;;;;;;0.97;0.97;;;1.30;99.90;;;;;;4924630;29;20450;-76
2022/03/07 01:10:28;;;;;;;1.00;0.97;;;1.40;99.90;;;;;;4924707;29;20129;-76
2022/03/07 01:12:54;;;;;;;2.30;1.77;;;1.30;99.90;;;;;;4924729;29;20513;-76
2022/03/07 01:15:20;;;;;;;2.77;1.43;;;1.30;99.90;;;;;;4924352;29;20051;-76
2022/03/07 01:17:45;;;;;;;8.30;1.83;;;1.30;99.90;;;;;;4924979;29;20054;-76
2022/03/07 01:20:11;;;;;;;12.10;1.90;;;1.30;99.90;;;;;;4924191;29;20131;-76
2022/03/07 01:22:38;;;;;;;0.60;0.60;;;1.30;99.90;;;;;;4923987;29;20091;-76
2022/03/07 01:25:05;;;;;;;7.80;1.57;;;1.20;99.90;;;;;;4924878;29;20048;-76
2022/03/07 01:27:32;;;;;;;1.17;1.07;;;1.30;99.90;;;;;;4924876;29;20039;-76
2022/03/07 01:29:58;;;;;;;0.60;0.60;;;1.30;99.90;;;;;;4923618;29;20040;-76
2022/03/07 01:32:24;;;;;;;1.17;0.77;;;1.30;99.90;;;;;;4924986;29;20510;-76
2022/03/07 01:34:49;;;;;;;2.23;1.80;;;1.20;99.90;;;;;;4924724;29;20048;-76
2022/03/07 01:37:15;;;;;;;0.47;0.47;;;1.20;99.90;;;;;;4924844;29;20036;-76
2022/03/07 01:39:41;;;;;;;0.83;0.83;;;1.20;99.90;;;;;;4925072;29;20134;-76
2022/03/07 01:42:07;;;;;;;0.80;0.80;;;1.20;99.90;;;;;;4924445;29;20151;-76
2022/03/07 01:44:34;;;;;;;2.10;1.60;;;1.20;99.90;;;;;;4923391;29;20066;-76
2022/03/07 01:47:00;;;;;;;1.10;0.47;;;1.10;99.90;;;;;;4924623;29;20442;-76
2022/03/07 01:49:26;;;;;;;1.83;0.83;;;1.10;99.90;;;;;;4927626;29;20039;-76
2022/03/07 01:51:53;;;;;;;4.03;1.57;;;1.10;99.90;;;;;;4928298;29;20050;-76
2022/03/07 01:54:19;;;;;;;0.93;0.93;;;1.10;99.90;;;;;;4928195;29;20249;-76
2022/03/07 01:56:47;;;;;;;11.40;1.33;;;1.10;99.90;;;;;;4927751;29;20048;-75
2022/03/07 01:59:15;;;;;;;0.63;0.63;;;1.10;99.90;;;;;;4927463;29;20449;-76
2022/03/07 02:01:40;;;;;;;2.50;1.43;;;1.10;99.90;;;;;;4928467;29;20047;-76
2022/03/07 02:06:48;;;;;;;1.23;0.93;;;1.00;99.90;;;;;;4907369;29;20060;-78
2022/03/07 02:09:15;;;;;;;1.30;1.20;;;1.00;99.90;;;;;;4909767;29;20044;-78
2022/03/07 02:11:40;;;;;;;0.80;0.80;;;1.00;99.90;;;;;;4908304;29;20056;-78
2022/03/07 02:14:14;;;;;;;2.63;0.57;;;1.00;99.90;;;;;;4908009;29;20044;-78
2022/03/07 02:16:41;;;;;;;17.03;1.30;;;0.90;99.90;;;;;;4908058;29;20051;-78
2022/03/07 02:19:06;;;;;;;0.33;0.33;;;0.90;99.90;;;;;;4907546;29;20048;-78
2022/03/07 02:21:36;;;;;;;2.27;1.37;;;1.00;99.90;;;;;;4909105;29;20100;-78
2022/03/07 02:24:03;;;;;;;2.13;1.60;;;1.00;99.90;;;;;;4907209;29;20506;-78
2022/03/07 02:26:29;;;;;;;2.23;1.50;;;1.00;99.90;;;;;;4908788;29;20048;-78
2022/03/07 02:28:54;;;;;;;1.67;1.57;;;1.00;99.90;;;;;;4906196;29;20054;-78
2022/03/07 02:31:21;;;;;;;0.27;0.27;;;1.00;99.90;;;;;;4908634;29;20132;-78
2022/03/07 02:33:48;;;;;;;2.57;0.77;;;0.90;99.90;;;;;;4908711;29;20107;-78
2022/03/07 02:36:13;;;;;;;0.53;0.53;;;1.00;99.90;;;;;;4908159;29;20047;-78
2022/03/07 02:38:39;;;;;;;0.53;0.53;;;1.00;99.90;;;;;;4908034;29;20044;-78
2022/03/07 02:41:05;;;;;;;0.40;0.40;;;0.90;99.90;;;;;;4908343;29;20076;-78
2022/03/07 02:43:30;;;;;;;1.33;1.00;;;0.90;99.90;;;;;;4907606;29;20051;-78
2022/03/07 02:45:58;;;;;;;0.87;0.70;;;0.90;99.90;;;;;;4907919;29;20376;-78
2022/03/07 02:48:24;;;;;;;1.10;1.03;;;0.90;99.90;;;;;;4908443;29;20048;-78
2022/03/07 02:50:49;;;;;;;0.93;0.93;;;0.90;99.90;;;;;;4907928;29;20044;-78
2022/03/07 02:53:15;;;;;;;1.10;0.97;;;0.90;99.90;;;;;;4908330;29;20048;-78
2022/03/07 02:55:40;;;;;;;2.47;1.60;;;0.90;99.90;;;;;;4908891;29;20040;-78
2022/03/07 02:58:06;;;;;;;1.50;1.03;;;0.80;99.90;;;;;;4906900;29;20052;-78
2022/03/07 03:00:32;;;;;;;4.03;1.40;;;0.80;99.90;;;;;;4907426;29;20102;-78
2022/03/07 03:02:58;;;;;;;1.67;1.10;;;0.80;99.90;;;;;;4907948;29;20146;-78
2022/03/07 03:05:23;;;;;;;1.47;1.13;;;0.80;99.90;;;;;;4908120;29;20411;-78
2022/03/07 03:07:51;;;;;;;0.53;0.37;;;0.80;99.90;;;;;;4907916;29;20087;-78
2022/03/07 03:10:17;;;;;;;3.30;2.13;;;0.80;99.90;;;;;;4906650;29;20044;-78
2022/03/07 03:12:42;;;;;;;2.47;1.17;;;0.80;99.90;;;;;;4906987;29;20044;-78
2022/03/07 03:15:08;;;;;;;1.93;1.47;;;0.80;99.90;;;;;;4905554;29;20525;-78
2022/03/07 03:17:34;;;;;;;7.27;2.33;;;0.70;99.90;;;;;;4906506;29;20137;-78
2022/03/07 03:19:59;;;;;;;2.20;2.00;;;0.70;99.90;;;;;;4907496;29;20546;-78
2022/03/07 03:22:25;;;;;;;1.37;1.27;;;0.70;99.90;;;;;;4907580;29;20168;-78
2022/03/07 03:24:50;;;;;;;1.40;0.83;;;0.70;99.90;;;;;;4907418;29;20056;-78
2022/03/07 03:27:16;;;;;;;1.07;0.60;;;0.70;99.90;;;;;;4907696;29;20077;-78
2022/03/07 03:29:42;;;;;;;2.07;1.50;;;0.70;99.90;;;;;;4906166;29;20047;-78
2022/03/07 03:32:07;;;;;;;1.00;0.80;;;0.60;99.90;;;;;;4906026;29;20127;-78
2022/03/07 03:34:33;;;;;;;2.00;0.80;;;0.60;99.90;;;;;;4907807;29;20044;-78
2022/03/07 03:36:59;;;;;;;7.83;1.50;;;0.70;99.90;;;;;;4906891;29;20048;-78
2022/03/07 03:39:24;;;;;;;2.43;1.47;;;0.70;99.90;;;;;;4907459;29;20107;-78
2022/03/07 03:41:50;;;;;;;0.17;0.17;;;0.60;99.90;;;;;;4905551;29;20071;-78
2022/03/07 03:44:16;;;;;;;4.40;1.97;;;0.60;99.90;;;;;;4906293;29;20033;-78
2022/03/07 03:46:41;;;;;;;1.37;1.30;;;0.70;99.90;;;;;;4906367;29;20051;-78
2022/03/07 03:49:07;;;;;;;1.60;0.97;;;0.60;99.90;;;;;;4906963;29;20048;-78
2022/03/07 03:51:36;;;;;;;1.07;0.43;;;0.60;99.90;;;;;;4907310;29;20107;-78
2022/03/07 03:54:02;;;;;;;2.03;1.83;;;0.60;99.90;;;;;;4905472;29;20807;-78
2022/03/07 03:56:28;;;;;;;1.27;1.17;;;0.60;99.90;;;;;;4905713;29;20052;-78
2022/03/07 03:58:53;;;;;;;7.53;1.10;;;0.60;99.90;;;;;;4906322;29;20046;-78
2022/03/07 04:01:19;;;;;;;7.20;1.60;;;0.60;99.90;;;;;;4890278;29;20052;-78
2022/03/07 04:03:45;;;;;;;1.13;0.83;;;0.60;99.90;;;;;;4905616;29;20104;-78
2022/03/07 04:06:10;;;;;;;1.33;1.23;;;0.60;99.90;;;;;;4905678;29;20418;-78
2022/03/07 04:08:49;;;;;;;3.93;1.87;;;0.50;99.90;;;;;;4907134;29;20483;-78
2022/03/07 04:11:15;;;;;;;1.43;1.33;;;0.50;99.90;;;;;;4907023;29;20067;-78
2022/03/07 04:13:41;;;;;;;1.00;0.60;;;0.50;99.90;;;;;;4906298;29;20063;-78
2022/03/07 04:16:07;;;;;;;2.97;1.57;;;0.50;99.90;;;;;;4905240;29;20139;-78
2022/03/07 04:18:33;;;;;;;1.00;0.97;;;0.40;99.90;;;;;;4906716;29;20165;-78
2022/03/07 04:20:58;;;;;;;0.77;0.77;;;0.40;99.90;;;;;;4906597;29;20080;-78
2022/03/07 04:23:24;;;;;;;2.43;1.07;;;0.50;99.90;;;;;;4905602;29;20063;-78
2022/03/07 04:25:49;;;;;;;0.80;0.53;;;0.50;99.90;;;;;;4905030;29;20505;-78
2022/03/07 04:28:15;;;;;;;1.90;1.00;;;0.50;99.90;;;;;;4904948;29;20063;-78
2022/03/07 04:30:41;;;;;;;8.63;1.43;;;0.50;99.90;;;;;;4906946;29;20040;-78
2022/03/07 04:33:07;;;;;;;1.27;1.07;;;0.50;99.90;;;;;;4904841;29;20048;-78
2022/03/07 04:35:33;;;;;;;2.27;1.57;;;0.40;99.90;;;;;;4906654;29;20052;-78
2022/03/07 04:38:00;;;;;;;4.67;1.50;;;0.40;99.90;;;;;;4904982;29;20048;-78
2022/03/07 04:40:26;;;;;;;0.63;0.63;;;0.40;99.90;;;;;;4905460;29;20060;-78
2022/03/07 04:42:52;;;;;;;2.07;0.40;;;0.40;99.90;;;;;;4905195;29;20100;-78
2022/03/07 04:45:18;;;;;;;2.10;0.83;;;0.40;99.90;;;;;;4906157;29;20040;-78
2022/03/07 04:47:44;;;;;;;0.20;0.20;;;0.40;99.90;;;;;;4921324;29;20044;-78
2022/03/07 04:50:11;;;;;;;1.60;1.40;;;0.40;99.90;;;;;;4905546;29;20479;-78
2022/03/07 04:52:37;;;;;;;0.63;0.63;;;0.30;99.90;;;;;;4906003;29;20200;-78
2022/03/07 04:55:03;;;;;;;0.57;0.57;;;0.40;99.90;;;;;;4904906;29;20047;-78
2022/03/07 04:57:29;;;;;;;3.30;1.70;;;0.40;99.90;;;;;;4906574;29;20048;-78
2022/03/07 04:59:55;;;;;;;2.63;1.50;;;0.40;99.90;;;;;;4904195;29;20047;-79
2022/03/07 05:02:20;;;;;;;0.73;0.73;;;0.30;99.90;;;;;;4905045;29;20052;-78
2022/03/07 05:04:46;;;;;;;0.67;0.67;;;0.40;99.90;;;;;;4904455;29;20083;-78
2022/03/07 05:07:11;;;;;;;1.20;1.13;;;0.40;99.90;;;;;;4906960;29;20135;-78
2022/03/07 05:09:37;;;;;;;4.23;1.93;;;0.40;99.90;;;;;;4905287;29;20395;-78
2022/03/07 05:12:03;;;;;;;0.93;0.93;;;0.40;99.90;;;;;;4885561;29;20063;-78
2022/03/07 05:14:28;;;;;;;0.63;0.63;;;0.40;99.90;;;;;;4886480;29;20616;-78
2022/03/07 05:16:54;;;;;;;1.73;1.63;;;0.50;99.90;;;;;;4885603;29;20664;-78
2022/03/07 05:19:19;;;;;;;4.47;1.87;;;0.40;99.90;;;;;;4887131;29;20054;-78
2022/03/07 05:21:46;;;;;;;1.13;1.03;;;0.40;99.90;;;;;;4885755;29;20471;-78
2022/03/07 05:24:11;;;;;;;0.50;0.50;;;0.40;99.90;;;;;;4902595;29;20048;-78
2022/03/07 05:26:37;;;;;;;2.47;1.03;;;0.40;99.90;;;;;;4908763;29;20055;-78
2022/03/07 05:29:04;;;;;;;1.40;1.30;;;0.30;99.90;;;;;;4909070;29;20076;-78
2022/03/07 05:31:30;;;;;;;2.30;2.10;;;0.30;99.90;;;;;;4909631;29;20514;-78
2022/03/07 05:33:56;;;;;;;0.80;0.60;;;0.30;99.90;;;;;;4909664;29;20040;-78
2022/03/07 05:36:21;;;;;;;0.43;0.40;;;0.30;99.90;;;;;;4908847;29;20044;-78
2022/03/07 05:38:47;;;;;;;1.17;1.13;;;0.20;99.90;;;;;;4907480;29;20083;-78
2022/03/07 05:41:14;;;;;;;0.50;0.43;;;0.20;99.90;;;;;;4909101;29;20506;-78
2022/03/07 05:43:40;;;;;;;1.30;0.53;;;0.20;99.90;;;;;;4906678;29;20108;-78
2022/03/07 05:46:06;;;;;;;0.77;0.67;;;0.20;99.90;;;;;;4891323;29;20535;-78
2022/03/07 05:48:32;;;;;;;1.33;1.17;;;0.10;99.90;;;;;;4907574;29;20066;-76
2022/03/07 05:50:58;;;;;;;1.23;1.13;;;0.20;99.90;;;;;;4908114;29;20044;-75
2022/03/07 05:53:24;;;;;;;2.10;1.80;;;0.10;99.90;;;;;;4907130;29;20051;-76
2022/03/07 05:55:50;;;;;;;1.73;1.53;;;0.10;99.90;;;;;;4908815;29;20457;-76
2022/03/07 05:58:16;;;;;;;0.93;0.93;;;0.10;99.90;;;;;;4907611;29;20079;-76
2022/03/07 06:00:42;;;;;;;1.40;0.67;;;0.10;99.90;;;;;;4908756;29;20044;-75
2022/03/07 06:03:08;;;;;;;0.63;0.40;;;0.10;99.90;;;;;;4908157;29;20066;-75
2022/03/07 06:05:34;;;;;;;3.90;1.67;;;0.10;99.90;;;;;;4907468;29;20483;-75
2022/03/07 06:08:00;;;;;;;15.20;1.40;;;0.10;99.90;;;;;;4906365;29;20353;-76
2022/03/07 06:10:26;;;;;;;0.50;0.50;;;0.10;99.90;;;;;;4908301;29;20123;-76
2022/03/07 06:12:51;;;;;;;6.10;0.93;;;0.10;99.90;;;;;;4906570;29;20135;-75
2022/03/07 06:15:17;;;;;;;1.63;1.43;;;0.10;99.90;;;;;;4906630;29;20083;-75
2022/03/07 06:17:51;;;;;;;1.60;1.23;;;0.00;99.90;;;;;;4908688;29;20546;-75
2022/03/07 06:20:17;;;;;;;1.30;1.20;;;0.00;99.90;;;;;;4908203;29;20051;-75
2022/03/07 06:22:42;;;;;;;1.37;1.27;;;0.00;99.90;;;;;;4908261;29;20337;-76
2022/03/07 06:25:08;;;;;;;0.40;0.40;;;0.00;99.90;;;;;;4907746;29;20032;-75
2022/03/07 06:27:33;;;;;;;1.23;0.93;;;0.00;99.90;;;;;;4906886;29;20040;-75
2022/03/07 06:29:59;;;;;;;1.60;1.50;;;0.00;99.90;;;;;;4907349;29;20040;-76
2022/03/07 06:32:26;;;;;;;2.33;1.23;;;0.00;99.90;;;;;;4908514;29;20040;-76
2022/03/07 06:34:52;;;;;;;1.27;1.17;;;0.00;99.90;;;;;;4907241;29;20041;-76
2022/03/07 06:37:18;;;;;;;0.97;0.97;;;0.00;99.90;;;;;;4907726;29;20063;-75
2022/03/07 06:39:43;;;;;;;1.40;1.30;;;0.00;99.90;;;;;;4908074;29;20194;-75
2022/03/07 06:42:09;;;;;;;0.67;0.67;;;0.00;99.90;;;;;;4907193;29;20056;-76
2022/03/07 06:44:39;;;;;;;1.30;0.90;;;0.00;99.90;;;;;;4907241;29;20043;-75
2022/03/07 06:47:06;;;;;;;1.30;0.80;;;0.00;99.90;;;;;;4908418;29;20059;-76
2022/03/07 06:49:31;;;;;;;1.60;1.50;;;0.10;99.90;;;;;;4907492;29;20036;-76
2022/03/07 06:51:57;;;;;;;7.03;1.77;;;0.10;99.90;;;;;;4906489;29;20123;-76
2022/03/07 06:54:22;;;;;;;1.17;1.07;;;0.10;99.90;;;;;;4906915;29;20052;-75
2022/03/07 06:56:48;;;;;;;0.70;0.70;;;0.10;99.90;;;;;;4907589;29;20043;-75
2022/03/07 06:59:13;;;;;;;1.57;1.17;;;0.10;99.90;;;;;;4892355;29;20100;-75
2022/03/07 07:01:39;;;;;;;0.63;0.63;;;0.10;99.90;;;;;;4898152;29;20040;-77
2022/03/07 07:04:04;;;;;;;2.63;1.13;;;0.10;99.90;;;;;;4907852;29;20052;-77
2022/03/07 07:06:30;;;;;;;0.40;0.40;;;0.10;99.90;;;;;;4906953;29;20059;-74
2022/03/07 07:08:56;;;;;;;1.17;0.87;;;0.10;99.90;;;;;;4902912;29;20044;-75
2022/03/07 07:11:21;;;;;;;0.70;0.70;;;0.20;99.90;;;;;;4904688;29;20062;-75
2022/03/07 07:13:47;;;;;;;4.40;1.30;;;0.20;99.90;;;;;;4904581;29;20052;-78
2022/03/07 07:16:12;;;;;;;1.27;1.17;;;0.20;99.90;;;;;;4907826;29;20044;-78
2022/03/07 07:18:38;;;;;;;0.60;0.47;;;0.20;99.90;;;;;;4905851;29;20058;-74
2022/03/07 07:21:04;;;;;;;1.63;1.20;;;0.20;99.90;;;;;;4907223;29;20052;-75
2022/03/07 07:23:30;;;;;;;1.23;1.13;;;0.20;99.90;;;;;;4908293;29;20047;-75
2022/03/07 07:25:55;;;;;;;3.90;1.93;;;0.20;99.90;;;;;;4905868;29;20060;-74
2022/03/07 07:28:21;;;;;;;2.27;1.43;;;0.20;99.90;;;;;;4906415;29;20040;-75
2022/03/07 07:30:47;;;;;;;1.23;1.13;;;0.30;99.90;;;;;;4905663;29;20089;-75
2022/03/07 07:33:13;;;;;;;1.13;1.07;;;0.30;99.90;;;;;;4907696;29;20066;-73
2022/03/07 07:35:39;;;;;;;1.13;0.90;;;0.40;99.90;;;;;;4922263;29;20036;-73
2022/03/07 07:38:05;;;;;;;0.63;0.63;;;0.30;99.90;;;;;;4904662;29;20047;-73
2022/03/07 07:40:31;;;;;;;1.27;1.17;;;0.40;99.90;;;;;;4905943;29;20107;-73
2022/03/07 07:42:58;;;;;;;0.80;0.80;;;0.40;99.90;;;;;;4906827;29;20048;-73
2022/03/07 07:45:24;;;;;;;4.10;1.40;;;0.50;99.90;;;;;;4894045;29;20539;-73
2022/03/07 07:47:49;;;;;;;1.47;1.30;;;0.50;99.90;;;;;;4887612;29;20052;-73
2022/03/07 07:50:15;;;;;;;1.73;1.63;;;0.50;99.90;;;;;;4898477;29;20100;-72
2022/03/07 07:52:41;;;;;;;1.83;0.67;;;0.50;99.90;;;;;;4922054;29;20068;-73
2022/03/07 07:55:06;;;;;;;1.27;1.27;;;0.60;99.90;;;;;;4906851;29;20410;-73
2022/03/07 07:57:32;;;;;;;0.40;0.40;;;0.60;99.90;;;;;;4905303;29;20044;-73
2022/03/07 07:59:58;;;;;;;2.33;1.37;;;0.60;99.90;;;;;;4906529;29;20075;-73
2022/03/07 08:02:23;;;;;;;1.33;1.23;;;0.70;99.90;;;;;;4905818;29;20431;-73
2022/03/07 08:04:51;;;;;;;6.07;1.60;;;0.70;99.90;;;;;;4905010;29;20048;-73
2022/03/07 08:07:18;;;;;;;0.93;0.87;;;0.70;99.90;;;;;;4905129;29;20088;-73
2022/03/07 08:09:43;;;;;;;5.27;1.37;;;0.80;99.90;;;;;;4907547;29;20136;-73
2022/03/07 08:12:10;;;;;;;3.07;1.33;;;0.80;99.90;;;;;;4904418;29;20802;-73
2022/03/07 08:14:36;;;;;;;3.00;1.43;;;0.90;99.90;;;;;;4905907;29;20451;-73
2022/03/07 08:17:03;;;;;;;1.97;1.80;;;0.90;99.90;;;;;;4906653;29;20036;-74
2022/03/07 08:19:30;;;;;;;1.13;1.10;;;1.00;99.90;;;;;;4905867;29;20451;-73
2022/03/07 08:21:55;;;;;;;0.73;0.73;;;1.00;99.90;;;;;;4905169;29;20036;-73
2022/03/07 08:24:21;;;;;;;7.27;2.97;;;1.00;99.90;;;;;;4902055;29;20100;-73
2022/03/07 08:26:46;;;;;;;2.43;2.23;;;1.10;99.90;;;;;;4909308;29;20052;-73
2022/03/07 08:29:12;;;;;;;4.73;2.00;;;1.10;99.90;;;;;;4905137;29;20040;-73
2022/03/07 08:31:38;;;;;;;2.23;2.13;;;1.20;99.90;;;;;;4905104;29;20138;-73
2022/03/07 08:34:03;;;;;;;1.73;1.63;;;1.20;99.90;;;;;;4905898;29;20464;-73
2022/03/07 08:36:31;;;;;;;5.60;1.97;;;1.20;99.90;;;;;;4921156;29;20036;-73
2022/03/07 08:38:57;;;;;;;2.00;1.80;;;1.40;99.90;;;;;;4905171;29;20139;-73
2022/03/07 08:41:23;;;;;;;2.73;2.13;;;1.40;99.90;;;;;;4905964;29;20074;-73
2022/03/07 08:43:50;;;;;;;1.97;1.80;;;1.40;99.90;;;;;;4897193;29;20047;-76
2022/03/07 08:46:15;;;;;;;1.70;1.60;;;1.50;99.90;;;;;;4879077;29;20130;-77
2022/03/07 08:48:41;;;;;;;0.97;0.97;;;1.60;99.90;;;;;;4897512;29;20139;-79
2022/03/07 08:51:07;;;;;;;2.23;2.07;;;1.60;99.90;;;;;;4896935;29;20044;-75
2022/03/07 08:53:32;;;;;;;0.87;0.87;;;1.60;99.90;;;;;;4897751;29;20432;-75
2022/03/07 08:55:58;;;;;;;2.23;1.50;;;1.70;99.90;;;;;;4895524;29;20459;-75
2022/03/07 08:58:23;;;;;;;1.03;1.00;;;1.70;99.90;;;;;;4895019;29;20381;-75
2022/03/07 09:00:50;;;;;;;5.50;1.80;;;1.80;99.90;;;;;;4900200;29;20062;-77
2022/03/07 09:03:15;;;;;;;3.47;2.23;;;1.80;99.90;;;;;;4906644;29;20044;-77
2022/03/07 09:05:41;;;;;;;3.30;3.00;;;1.80;99.90;;;;;;4889545;29;20123;-76
2022/03/07 09:08:07;;;;;;;1.63;1.53;;;1.90;99.90;;;;;;4905876;29;20046;-74
2022/03/07 09:10:32;;;;;;;2.57;2.20;;;1.90;99.90;;;;;;4904450;29;20507;-76
2022/03/07 09:12:58;;;;;;;2.63;2.53;;;2.00;99.90;;;;;;4905212;29;20047;-76
2022/03/07 09:15:23;;;;;;;3.93;2.43;;;2.00;99.90;;;;;;4906010;29;20032;-76
2022/03/07 09:17:49;;;;;;;7.80;3.03;;;2.00;99.90;;;;;;4904966;29;20110;-75
2022/03/07 09:20:17;;;;;;;2.00;1.50;;;2.10;99.90;;;;;;4904541;29;20064;-75
2022/03/07 09:22:43;;;;;;;1.33;1.10;;;2.10;99.90;;;;;;4905456;29;20044;-75
2022/03/07 09:25:09;;;;;;;8.50;2.57;;;2.20;99.90;;;;;;4905160;29;20119;-76
2022/03/07 09:27:35;;;;;;;2.10;2.00;;;2.20;99.90;;;;;;4903356;29;20257;-82
2022/03/07 09:30:01;;;;;;;1.53;1.43;;;2.20;99.90;;;;;;4905667;29;20087;-83
2022/03/07 09:32:26;;;;;;;3.40;1.70;;;2.30;99.90;;;;;;4905022;29;20047;-79
2022/03/07 09:34:52;;;;;;;6.40;1.70;;;2.30;99.90;;;;;;4902772;29;20510;-80
2022/03/07 09:37:18;;;;;;;7.13;1.27;;;2.40;99.90;;;;;;4904834;29;20465;-83
2022/03/07 09:39:44;;;;;;;10.17;2.47;;;2.40;99.90;;;;;;4900603;29;20048;-82
2022/03/07 09:42:09;;;;;;;1.93;1.77;;;2.50;99.90;;;;;;4904030;29;20403;-79
2022/03/07 09:44:35;;;;;;;3.60;2.07;;;2.40;99.90;;;;;;4897523;29;20040;-82
2022/03/07 09:47:03;;;;;;;5.30;2.33;;;2.50;99.90;;;;;;4905866;29;20133;-80
2022/03/07 09:49:29;;;;;;;1.97;1.87;;;2.60;99.90;;;;;;4905623;29;20127;-80
2022/03/07 09:51:55;;;;;;;2.10;1.10;;;2.60;99.90;;;;;;4905509;29;20047;-81
2022/03/07 09:54:23;;;;;;;0.70;0.70;;;2.70;99.90;;;;;;4903907;29;20044;-85
2022/03/07 09:56:49;;;;;;;1.60;1.50;;;2.70;99.90;;;;;;4902371;29;20414;-87
2022/03/07 09:59:17;;;;;;;3.00;1.90;;;2.70;99.90;;;;;;4894476;29;20091;-82
2022/03/07 10:01:56;;;;;;;1.87;1.80;;;2.70;99.90;;;;;;4895794;29;20399;-83
2022/03/07 10:04:22;;;;;;;5.30;2.30;;;2.70;99.90;;;;;;4896765;29;20639;-84
2022/03/07 10:06:51;;;;;;;3.20;1.57;;;2.70;99.90;;;;;;4894732;29;20099;-84
2022/03/07 10:09:21;;;;;;;1.67;0.80;;;2.70;99.90;;;;;;4896458;29;20499;-81
2022/03/07 10:11:52;;;;;;;2.20;1.73;;;2.80;99.90;;;;;;4896780;29;20092;-82
2022/03/07 10:14:30;;;;;;;2.13;1.53;;;2.80;99.90;;;;;;4907799;29;20098;-77
2022/03/07 10:16:55;;;;;;;5.20;4.03;;;2.90;99.90;;;;;;4907692;29;20052;-77
2022/03/07 10:19:21;;;;;;;1.37;1.27;;;2.90;99.90;;;;;;4903855;29;20067;-77
2022/03/07 10:21:50;;;;;;;0.97;0.97;;;3.00;99.90;;;;;;4909773;29;20047;-77
2022/03/07 10:24:16;;;;;;;3.50;2.23;;;3.00;99.90;;;;;;4906840;29;20048;-77
2022/03/07 10:26:43;;;;;;;2.20;2.10;;;3.10;99.90;;;;;;4903486;29;20478;-77
2022/03/07 10:29:09;;;;;;;2.10;1.80;;;3.10;99.90;;;;;;4905208;29;20047;-77
2022/03/07 10:31:35;;;;;;;1.63;1.53;;;3.20;99.90;;;;;;4907484;29;20087;-77
2022/03/07 10:34:06;;;;;;;2.13;1.10;;;3.10;99.90;;;;;;4907325;29;20095;-77
2022/03/07 10:36:36;;;;;;;0.97;0.97;;;3.20;99.90;;;;;;4907611;29;20052;-78
2022/03/07 10:39:08;;;;;;;2.40;1.57;;;3.20;99.90;;;;;;4907388;29;20067;-77
2022/03/07 10:41:37;;;;;;;1.92;1.80;;;3.20;99.90;;;;;;4908271;29;20044;-77
2022/03/07 10:44:05;;;;;;;1.03;1.00;;;3.20;99.90;;;;;;4891091;29;20048;-77
2022/03/07 10:46:31;;;;;;;2.63;1.80;;;3.20;99.90;;;;;;4906528;29;20040;-77
2022/03/07 10:48:57;;;;;;;1.97;1.87;;;3.20;99.90;;;;;;4905037;29;20063;-82
2022/03/07 10:51:22;;;;;;;4.40;1.47;;;3.30;99.90;;;;;;4906805;29;20048;-77
2022/03/07 10:53:48;;;;;;;3.30;1.50;;;3.30;99.90;;;;;;4907082;29;20063;-77
2022/03/07 10:56:16;;;;;;;1.47;1.37;;;3.30;99.90;;;;;;4908941;29;20044;-77
2022/03/07 10:58:47;;;;;;;0.77;0.77;;;3.40;99.90;;;;;;4907186;29;20059;-77
2022/03/07 11:01:13;;;;;;;2.67;1.60;;;3.40;99.90;;;;;;4907829;29;20337;-77
2022/03/07 11:03:39;;;;;;;2.97;1.40;;;3.40;99.90;;;;;;4908498;29;20048;-77
2022/03/07 11:06:04;;;;;;;0.73;0.70;;;3.40;99.90;;;;;;4908100;29;20055;-77
2022/03/07 11:08:30;;;;;;;1.20;1.10;;;3.40;99.90;;;;;;4908235;29;20040;-77
2022/03/07 11:10:58;;;;;;;12.17;1.57;;;3.50;99.90;;;;;;4908172;29;20127;-77
2022/03/07 11:13:29;;;;;;;1.00;0.90;;;3.50;99.90;;;;;;4905993;29;20129;-77
2022/03/07 11:15:56;;;;;;;1.60;1.50;;;3.60;99.90;;;;;;4907850;29;20047;-77
2022/03/07 11:18:23;;;;;;;2.27;1.30;;;3.60;99.90;;;;;;4908674;29;20060;-76
2022/03/07 11:20:50;;;;;;;1.60;1.53;;;3.70;99.90;;;;;;4903109;29;20063;-77
2022/03/07 11:23:17;;;;;;;2.73;2.53;;;3.80;99.90;;;;;;4907819;29;20036;-77
2022/03/07 11:25:51;;;;;;;5.73;1.57;;;3.80;99.90;;;;;;4906173;29;20056;-77
2022/03/07 11:28:17;;;;;;;2.27;2.07;;;3.90;99.90;;;;;;4904577;29;20052;-79
2022/03/07 11:30:44;;;;;;;1.10;1.07;;;3.90;99.90;;;;;;4908247;29;20131;-78
2022/03/07 11:33:15;;;;;;;1.47;0.93;;;3.90;99.90;;;;;;4908257;29;20052;-78
2022/03/07 11:35:44;;;;;;;2.40;2.22;;;4.00;99.90;;;;;;4908300;29;20048;-76
2022/03/07 11:38:19;;;;;;;2.47;1.13;;;4.00;99.90;;;;;;4907902;29;20048;-74
2022/03/07 11:41:11;;;;;;;1.53;1.43;;;4.10;99.90;;;;;;4906407;29;20575;-76
2022/03/07 11:43:50;;;;;;;2.85;2.03;;;4.20;99.90;;;;;;4903716;29;20044;-77
2022/03/07 11:46:27;;;;;;;1.70;1.60;;;4.20;99.90;;;;;;4885976;29;20063;-77
2022/03/07 11:48:53;;;;;;;3.90;1.77;;;4.30;99.90;;;;;;4888279;29;20049;-77
2022/03/07 11:51:21;;;;;;;3.47;1.17;;;4.40;99.90;;;;;;4899513;29;20051;-77
2022/03/07 11:53:48;;;;;;;6.73;1.67;;;4.40;99.90;;;;;;4905292;29;20066;-77
2022/03/07 11:56:25;;;;;;;2.33;1.73;;;4.40;99.90;;;;;;4907047;29;20067;-77
2022/03/07 11:58:54;;;;;;;1.50;1.40;;;4.50;99.90;;;;;;4905389;29;20044;-82
2022/03/07 12:01:21;;;;;;;1.60;1.50;;;4.50;99.90;;;;;;4907698;29;20123;-76
2022/03/07 12:03:47;;;;;;;2.43;2.23;;;4.60;99.90;;;;;;4906198;29;20647;-77
2022/03/07 12:06:14;;;;;;;1.00;1.00;;;4.60;99.90;;;;;;4907794;29;20053;-76
2022/03/07 12:08:44;;;;;;;2.10;1.63;;;4.60;99.90;;;;;;4906431;29;20063;-77
2022/03/07 12:11:24;;;;;;;1.27;1.13;;;4.70;99.90;;;;;;4908036;29;20047;-77
2022/03/07 12:13:50;;;;;;;1.97;1.43;;;4.80;99.90;;;;;;4905862;29;20059;-77
2022/03/07 12:16:37;;;;;;;1.93;1.80;;;4.90;99.90;;;;;;4907278;29;20047;-77
2022/03/07 12:19:10;;;;;;;1.73;1.63;;;5.00;99.90;;;;;;4905682;29;20055;-78
2022/03/07 12:21:37;;;;;;;0.70;0.70;;;5.00;99.90;;;;;;4906077;29;20048;-77
2022/03/07 12:24:06;;;;;;;1.33;1.27;;;5.00;99.90;;;;;;4900526;29;20091;-79
2022/03/07 12:26:32;;;;;;;0.87;0.87;;;5.00;99.90;;;;;;4906226;29;20075;-85
2022/03/07 12:28:57;;;;;;;2.67;1.90;;;5.00;99.90;;;;;;4897930;29;20131;-83
2022/03/07 12:31:23;;;;;;;20.07;2.27;;;5.00;99.90;;;;;;4903490;29;20130;-84
2022/03/07 12:33:49;;;;;;;3.85;1.13;;;5.00;99.90;;;;;;4904806;29;20084;-83
2022/03/07 12:36:16;;;;;;;2.23;1.43;;;5.10;99.90;;;;;;4907302;29;20126;-84
2022/03/07 12:38:50;;;;;;;4.17;2.23;;;5.20;99.90;;;;;;4906798;29;20040;-82
2022/03/07 12:41:19;;;;;;;5.47;1.63;;;5.20;99.90;;;;;;4906316;29;20625;-80
2022/03/07 12:43:45;;;;;;;1.42;1.33;;;5.30;99.90;;;;;;4905303;29;20052;-77
2022/03/07 12:46:13;;;;;;;2.70;1.40;;;5.30;99.90;;;;;;4888042;29;20032;-76
2022/03/07 12:48:43;;;;;;;0.80;0.80;;;5.30;99.90;;;;;;4886534;29;20088;-76
2022/03/07 12:51:14;;;;;;;1.75;1.48;;;5.40;99.90;;;;;;4886194;29;20047;-76
2022/03/07 12:53:56;;;;;;;1.88;1.77;;;5.40;99.90;;;;;;4886931;29;20211;-76
2022/03/07 12:56:40;;;;;;;0.75;0.75;;;5.60;99.90;;;;;;4911252;29;20148;-79
2022/03/07 12:59:07;;;;;;;1.55;1.17;;;5.70;99.90;;;;;;4911482;29;20198;-85